createdAt,value
2019-04-29T00:01:19.816Z,4.03
2019-04-29T00:03:51.021Z,3.77
2019-04-29T00:06:22.324Z,4.13
2019-04-29T00:08:53.431Z,3.73
2019-04-29T00:11:25.004Z,3.83
2019-04-29T00:13:56.610Z,4.07
2019-04-29T00:16:37.227Z,4.17
2019-04-29T00:19:13.116Z,3.77
2019-04-29T00:21:44.940Z,4.00
2019-04-29T00:24:16.165Z,3.87
2019-04-29T00:26:47.300Z,3.70
2019-04-29T00:29:18.562Z,4.00
2019-04-29T00:31:51.164Z,3.90
2019-04-29T00:34:22.304Z,3.60
2019-04-29T00:37:02.025Z,4.10
2019-04-29T00:39:44.124Z,3.13
2019-04-29T00:42:26.258Z,3.47
2019-04-29T00:44:57.597Z,4.03
2019-04-29T00:47:28.969Z,3.60
2019-04-29T00:50:00.112Z,3.40
2019-04-29T00:52:31.656Z,3.40
2019-04-29T00:55:05.719Z,4.03
2019-04-29T00:57:36.998Z,3.90
2019-04-29T01:00:11.367Z,3.37
2019-04-29T01:02:42.685Z,3.43
2019-04-29T01:05:13.932Z,3.50
2019-04-29T01:07:45.385Z,4.33
2019-04-29T01:10:16.749Z,3.33
2019-04-29T01:12:47.864Z,3.70
2019-04-29T01:15:20.389Z,3.80
2019-04-29T01:17:51.757Z,3.80
2019-04-29T01:20:29.301Z,3.70
2019-04-29T01:23:00.653Z,3.97
2019-04-29T01:25:31.966Z,3.67
2019-04-29T01:28:08.394Z,3.23
2019-04-29T01:30:52.387Z,3.83
2019-04-29T01:33:23.663Z,3.80
2019-04-29T01:35:59.675Z,3.50
2019-04-29T01:38:30.903Z,3.47
2019-04-29T01:41:04.224Z,4.10
2019-04-29T01:43:53.692Z,3.80
2019-04-29T01:46:24.891Z,3.83
2019-04-29T01:48:56.022Z,3.80
2019-04-29T01:51:27.474Z,3.67
2019-04-29T01:53:58.498Z,3.60
2019-04-29T01:56:29.949Z,3.70
2019-04-29T01:59:01.082Z,3.93
2019-04-29T02:01:32.378Z,3.57
2019-04-29T02:04:03.719Z,3.63
2019-04-29T02:06:34.845Z,3.60
2019-04-29T02:09:10.143Z,3.87
2019-04-29T02:11:41.455Z,3.47
2019-04-29T02:14:12.688Z,3.40
2019-04-29T02:16:43.706Z,3.87
2019-04-29T02:19:14.846Z,3.90
2019-04-29T02:21:47.920Z,3.70
2019-04-29T02:24:20.184Z,3.73
2019-04-29T02:26:51.461Z,3.60
2019-04-29T02:29:22.728Z,3.23
2019-04-29T02:31:54.033Z,3.77
2019-04-29T02:34:25.261Z,3.80
2019-04-29T02:36:58.135Z,3.57
2019-04-29T02:39:40.111Z,3.93
2019-04-29T02:42:29.790Z,3.43
2019-04-29T02:45:03.228Z,3.83
2019-04-29T02:47:34.922Z,3.70
2019-04-29T02:50:06.569Z,4.20
2019-04-29T02:52:39.335Z,4.50
2019-04-29T02:55:12.675Z,4.27
2019-04-29T02:57:45.765Z,4.03
2019-04-29T03:00:25.346Z,3.93
2019-04-29T03:03:01.483Z,4.40
2019-04-29T03:05:40.373Z,4.17
2019-04-29T03:08:11.964Z,4.07
2019-04-29T03:10:43.358Z,4.20
2019-04-29T03:13:14.525Z,4.23
2019-04-29T03:15:46.250Z,4.33
2019-04-29T03:18:17.925Z,3.90
2019-04-29T03:20:51.646Z,4.10
2019-04-29T03:23:25.116Z,4.57
2019-04-29T03:25:56.269Z,4.20
2019-04-29T03:28:27.572Z,4.07
2019-04-29T03:30:58.964Z,3.67
2019-04-29T03:33:30.429Z,4.47
2019-04-29T03:36:01.830Z,4.10
2019-04-29T03:38:32.866Z,4.53
2019-04-29T03:41:04.333Z,4.77
2019-04-29T03:43:36.071Z,3.60
2019-04-29T03:46:08.338Z,4.90
2019-04-29T03:48:39.469Z,4.73
2019-04-29T03:51:10.631Z,4.20
2019-04-29T03:53:41.810Z,4.97
2019-04-29T03:56:13.067Z,4.07
2019-04-29T03:58:44.324Z,5.33
2019-04-29T04:01:20.290Z,4.57
2019-04-29T04:03:53.501Z,4.70
2019-04-29T04:06:26.556Z,5.00
2019-04-29T04:09:06.158Z,4.73
2019-04-29T04:11:34.496Z,4.90
2019-04-29T04:14:05.594Z,5.67
2019-04-29T04:16:38.665Z,5.20
2019-04-29T04:19:09.767Z,5.67
2019-04-29T04:21:41.085Z,6.13
2019-04-29T04:24:12.382Z,5.07
2019-04-29T04:26:43.542Z,5.40
2019-04-29T04:29:14.754Z,4.90
2019-04-29T04:31:46.221Z,5.50
2019-04-29T04:34:17.514Z,5.60
2019-04-29T04:36:48.539Z,4.93
2019-04-29T04:39:19.905Z,5.53
2019-04-29T04:41:51.076Z,6.13
2019-04-29T04:44:24.127Z,5.37
2019-04-29T04:46:55.289Z,5.40
2019-04-29T04:49:26.520Z,5.10
2019-04-29T04:51:57.896Z,5.30
2019-04-29T04:54:31.480Z,4.70
2019-04-29T04:57:02.143Z,5.23
2019-04-29T04:59:33.377Z,4.60
2019-04-29T05:02:04.549Z,4.97
2019-04-29T05:04:36.126Z,5.10
2019-04-29T05:07:07.401Z,5.13
2019-04-29T05:09:38.648Z,5.33
2019-04-29T05:12:09.824Z,5.30
2019-04-29T05:14:40.962Z,5.50
2019-04-29T05:17:12.344Z,5.37
2019-04-29T05:19:44.539Z,6.90
2019-04-29T05:22:15.870Z,5.03
2019-04-29T05:24:47.029Z,5.73
2019-04-29T05:27:18.146Z,5.20
2019-04-29T05:29:49.294Z,38.93
2019-04-29T05:32:20.399Z,5.60
2019-04-29T05:34:55.938Z,4.93
2019-04-29T05:37:37.590Z,5.23
2019-04-29T05:40:08.817Z,5.47
2019-04-29T05:42:40.057Z,5.43
2019-04-29T05:45:22.615Z,5.00
2019-04-29T05:48:04.468Z,5.30
2019-04-29T05:50:53.924Z,4.80
2019-04-29T05:53:27.141Z,4.73
2019-04-29T05:55:58.341Z,5.37
2019-04-29T05:58:32.858Z,5.10
2019-04-29T06:01:04.458Z,5.37
2019-04-29T06:03:37.937Z,4.53
2019-04-29T06:06:08.771Z,4.90
2019-04-29T06:08:40.636Z,5.20
2019-04-29T06:11:11.912Z,5.03
2019-04-29T06:13:43.246Z,5.00
2019-04-29T06:16:15.929Z,5.40
2019-04-29T06:18:47.566Z,5.60
2019-04-29T06:21:19.070Z,5.03
2019-04-29T06:23:50.215Z,5.00
2019-04-29T06:26:21.798Z,6.07
2019-04-29T06:28:53.189Z,5.07
2019-04-29T06:31:24.474Z,4.90
2019-04-29T06:33:55.573Z,5.40
2019-04-29T06:36:26.761Z,5.13
2019-04-29T06:38:59.001Z,5.00
2019-04-29T06:41:30.300Z,4.73
2019-04-29T06:44:06.193Z,5.53
2019-04-29T06:46:34.584Z,5.77
2019-04-29T06:49:10.645Z,5.70
2019-04-29T06:51:38.857Z,5.43
2019-04-29T06:54:10.082Z,5.17
2019-04-29T06:56:41.387Z,5.20
2019-04-29T06:59:14.022Z,6.33
2019-04-29T07:01:45.632Z,5.60
2019-04-29T07:04:16.943Z,5.40
2019-04-29T07:06:57.074Z,5.30
2019-04-29T07:09:21.222Z,5.63
2019-04-29T07:11:52.510Z,5.43
2019-04-29T07:14:23.819Z,4.73
2019-04-29T07:16:55.065Z,5.57
2019-04-29T07:19:26.711Z,7.43
2019-04-29T07:21:59.377Z,10.03
2019-04-29T07:24:30.623Z,5.57
2019-04-29T07:27:02.687Z,6.70
2019-04-29T07:29:37.924Z,5.83
2019-04-29T07:32:09.650Z,6.97
2019-04-29T07:34:41.801Z,7.30
2019-04-29T07:37:13.014Z,7.10
2019-04-29T07:39:44.202Z,7.57
2019-04-29T07:42:15.351Z,7.20
2019-04-29T07:44:48.823Z,7.50
2019-04-29T07:47:24.876Z,8.63
2019-04-29T07:49:54.769Z,7.50
2019-04-29T07:52:26.966Z,7.60
2019-04-29T07:54:58.293Z,7.97
2019-04-29T07:57:29.495Z,7.37
2019-04-29T08:00:00.740Z,7.67
2019-04-29T08:02:32.032Z,7.70
2019-04-29T08:05:06.720Z,7.67
2019-04-29T08:07:38.426Z,7.57
2019-04-29T08:10:22.853Z,8.43
2019-04-29T08:12:44.060Z,7.30
2019-04-29T08:15:15.267Z,8.67
2019-04-29T08:17:46.621Z,7.97
2019-04-29T08:20:17.873Z,8.33
2019-04-29T08:22:49.253Z,8.37
2019-04-29T08:25:21.740Z,9.33
2019-04-29T08:27:53.888Z,9.20
2019-04-29T08:30:26.283Z,9.93
2019-04-29T08:32:57.405Z,8.70
2019-04-29T08:35:28.549Z,7.00
2019-04-29T08:37:59.573Z,7.90
2019-04-29T08:40:34.257Z,8.60
2019-04-29T08:43:23.643Z,7.93
2019-04-29T08:46:31.751Z,7.33
2019-04-29T08:49:06.040Z,8.13
2019-04-29T08:51:36.087Z,7.40
2019-04-29T08:54:07.277Z,7.63
2019-04-29T08:56:42.545Z,7.53
2019-04-29T08:59:12.709Z,8.53
2019-04-29T09:01:43.997Z,8.40
2019-04-29T09:04:15.159Z,8.30
2019-04-29T09:06:46.281Z,7.80
2019-04-29T09:09:28.865Z,7.80
2019-04-29T09:11:52.044Z,7.90
2019-04-29T09:14:23.224Z,7.10
2019-04-29T09:16:54.600Z,7.77
2019-04-29T09:19:26.971Z,10.00
2019-04-29T09:22:00.076Z,8.93
2019-04-29T09:24:31.377Z,7.73
2019-04-29T09:27:05.005Z,8.13
2019-04-29T09:29:37.501Z,8.37
2019-04-29T09:32:08.855Z,9.13
2019-04-29T09:34:40.084Z,13.83
2019-04-29T09:37:11.193Z,8.40
2019-04-29T09:39:44.263Z,8.37
2019-04-29T09:42:17.469Z,7.33
2019-04-29T09:45:06.853Z,6.80
2019-04-29T09:47:38.303Z,6.60
2019-04-29T09:50:10.030Z,6.70
2019-04-29T09:52:41.470Z,6.90
2019-04-29T09:55:12.857Z,5.67
2019-04-29T09:57:44.412Z,5.73
2019-04-29T10:00:17.957Z,5.90
2019-04-29T10:03:02.583Z,5.27
2019-04-29T10:05:35.021Z,5.60
2019-04-29T10:08:06.263Z,6.97
2019-04-29T10:10:37.968Z,6.37
2019-04-29T10:13:09.199Z,6.13
2019-04-29T10:15:48.001Z,6.50
2019-04-29T10:18:24.985Z,6.20
2019-04-29T10:21:02.358Z,5.97
2019-04-29T10:23:34.716Z,6.10
2019-04-29T10:26:06.086Z,5.57
2019-04-29T10:28:39.372Z,5.93
2019-04-29T10:31:10.909Z,6.73
2019-04-29T10:33:42.306Z,6.67
2019-04-29T10:36:16.062Z,6.23
2019-04-29T10:38:47.977Z,6.40
2019-04-29T10:41:35.976Z,6.40
2019-04-29T10:44:16.849Z,5.97
2019-04-29T10:46:58.923Z,6.60
2019-04-29T10:49:34.813Z,7.63
2019-04-29T10:52:05.268Z,8.27
2019-04-29T10:54:36.842Z,6.27
2019-04-29T10:57:10.474Z,6.40
2019-04-29T10:59:44.971Z,6.20
2019-04-29T11:02:21.704Z,8.07
2019-04-29T11:05:02.580Z,5.67
2019-04-29T11:07:42.165Z,5.47
2019-04-29T11:10:25.518Z,5.77
2019-04-29T11:12:57.284Z,4.63
2019-04-29T11:15:32.561Z,5.13
2019-04-29T11:18:04.255Z,4.60
2019-04-29T11:20:35.639Z,5.10
2019-04-29T11:23:18.230Z,4.43
2019-04-29T11:25:57.118Z,4.60
2019-04-29T11:28:29.497Z,4.70
2019-04-29T11:31:00.861Z,4.63
2019-04-29T11:33:35.580Z,4.87
2019-04-29T11:36:16.062Z,6.03
2019-04-29T11:38:47.401Z,4.53
2019-04-29T11:41:20.791Z,5.23
2019-04-29T11:43:52.866Z,4.57
2019-04-29T11:46:24.057Z,4.90
2019-04-29T11:48:57.262Z,5.50
2019-04-29T11:51:34.225Z,4.97
2019-04-29T11:54:03.503Z,5.37
2019-04-29T11:56:34.785Z,5.80
2019-04-29T11:59:21.008Z,6.53
2019-04-29T12:02:03.685Z,6.17
2019-04-29T12:04:42.075Z,5.43
2019-04-29T12:07:12.775Z,5.23
2019-04-29T12:09:44.263Z,5.57
2019-04-29T12:12:17.015Z,5.70
2019-04-29T12:14:56.107Z,5.90
2019-04-29T12:17:38.053Z,6.30
2019-04-29T12:20:28.318Z,7.20
2019-04-29T12:22:59.663Z,6.07
2019-04-29T12:25:30.931Z,6.23
2019-04-29T12:28:18.150Z,5.53
2019-04-29T12:30:44.991Z,5.40
2019-04-29T12:33:18.618Z,5.20
2019-04-29T12:36:03.275Z,5.13
2019-04-29T12:38:48.846Z,5.70
2019-04-29T12:41:29.930Z,5.10
2019-04-29T12:43:59.493Z,5.47
2019-04-29T12:46:38.471Z,5.23
2019-04-29T12:49:13.506Z,5.47
2019-04-29T12:51:43.014Z,5.37
2019-04-29T12:54:15.840Z,5.27
2019-04-29T12:56:49.457Z,5.87
2019-04-29T12:59:20.818Z,6.03
2019-04-29T13:01:58.841Z,6.13
2019-04-29T13:04:38.055Z,4.77
2019-04-29T13:07:27.467Z,4.60
2019-04-29T13:10:01.979Z,4.57
2019-04-29T13:12:34.183Z,4.90
2019-04-29T13:15:12.253Z,4.27
2019-04-29T13:17:45.529Z,4.70
2019-04-29T13:20:16.821Z,4.73
2019-04-29T13:22:48.174Z,4.93
2019-04-29T13:25:19.723Z,4.27
2019-04-29T13:27:56.108Z,4.50
2019-04-29T13:30:25.203Z,4.80
2019-04-29T13:32:56.410Z,4.67
2019-04-29T13:35:27.737Z,4.00
2019-04-29T13:37:59.064Z,5.67
2019-04-29T13:40:32.965Z,4.07
2019-04-29T13:43:03.553Z,4.20
2019-04-29T13:45:37.030Z,4.90
2019-04-29T13:48:22.178Z,4.10
2019-04-29T13:50:56.300Z,4.63
2019-04-29T13:53:27.573Z,4.20
2019-04-29T13:56:10.959Z,4.77
2019-04-29T13:58:32.073Z,4.70
2019-04-29T14:01:05.213Z,4.63
2019-04-29T14:03:49.485Z,4.87
2019-04-29T14:06:20.893Z,5.20
2019-04-29T14:08:54.163Z,5.17
2019-04-29T14:11:25.958Z,6.43
2019-04-29T14:13:58.360Z,4.73
2019-04-29T14:16:29.814Z,5.00
2019-04-29T14:19:01.103Z,5.30
2019-04-29T14:21:32.216Z,4.90
2019-04-29T14:24:03.429Z,5.13
2019-04-29T14:26:36.895Z,4.73
2019-04-29T14:29:07.982Z,5.77
2019-04-29T14:31:40.201Z,4.77
2019-04-29T14:34:18.416Z,4.97
2019-04-29T14:36:46.995Z,5.40
2019-04-29T14:39:35.893Z,5.50
2019-04-29T14:41:55.408Z,5.43
2019-04-29T14:44:43.223Z,5.37
2019-04-29T14:47:21.968Z,5.50
2019-04-29T14:49:58.206Z,5.23
2019-04-29T14:52:29.578Z,5.53
2019-04-29T14:55:00.794Z,6.23
2019-04-29T14:57:31.965Z,6.43
2019-04-29T15:00:09.073Z,6.40
2019-04-29T15:02:40.702Z,5.87
2019-04-29T15:05:13.964Z,5.87
2019-04-29T15:08:05.215Z,6.20
2019-04-29T15:10:37.866Z,6.53
2019-04-29T15:13:20.560Z,6.00
2019-04-29T15:15:48.901Z,6.47
2019-04-29T15:18:38.831Z,8.90
2019-04-29T15:21:09.508Z,6.63
2019-04-29T15:23:40.959Z,6.43
2019-04-29T15:26:13.117Z,6.73
2019-04-29T15:28:51.333Z,6.90
2019-04-29T15:31:23.492Z,7.03
2019-04-29T15:33:54.640Z,7.10
2019-04-29T15:36:25.776Z,6.23
2019-04-29T15:39:08.801Z,6.77
2019-04-29T15:41:32.724Z,6.90
2019-04-29T15:44:07.689Z,6.70
2019-04-29T15:46:46.449Z,6.00
2019-04-29T15:49:09.719Z,7.43
2019-04-29T15:51:44.122Z,7.67
2019-04-29T15:54:14.587Z,7.30
2019-04-29T15:56:47.047Z,7.67
2019-04-29T15:59:18.269Z,7.10
2019-04-29T16:01:49.413Z,7.30
2019-04-29T16:04:23.065Z,7.70
2019-04-29T16:07:02.836Z,6.90
2019-04-29T16:09:51.613Z,7.13
2019-04-29T16:12:22.826Z,7.30
2019-04-29T16:14:54.089Z,7.37
2019-04-29T16:17:25.138Z,7.30
2019-04-29T16:19:56.383Z,7.30
2019-04-29T16:22:27.585Z,7.13
2019-04-29T16:24:59.589Z,7.67
2019-04-29T16:27:30.969Z,7.83
2019-04-29T16:30:04.631Z,6.27
2019-04-29T16:32:39.423Z,6.40
2019-04-29T16:35:10.772Z,7.77
2019-04-29T16:37:42.019Z,7.30
2019-04-29T16:40:13.462Z,8.67
2019-04-29T16:42:52.706Z,7.53
2019-04-29T16:45:25.793Z,7.27
2019-04-29T16:47:57.082Z,6.40
2019-04-29T16:50:28.229Z,6.43
2019-04-29T16:52:59.535Z,6.27
2019-04-29T16:55:35.974Z,7.03
2019-04-29T16:58:07.706Z,7.20
2019-04-29T17:00:39.176Z,6.70
2019-04-29T17:03:10.434Z,7.30
2019-04-29T17:05:41.539Z,6.83
2019-04-29T17:10:52.113Z,6.67
2019-04-29T17:13:23.932Z,7.30
2019-04-29T17:15:55.346Z,6.90
2019-04-29T17:18:26.645Z,7.03
2019-04-29T17:21:04.528Z,7.07
2019-04-29T17:23:30.941Z,6.93
2019-04-29T17:26:02.308Z,7.87
2019-04-29T17:28:50.148Z,6.30
2019-04-29T17:31:23.755Z,6.50
2019-04-29T17:33:57.444Z,6.30
2019-04-29T17:35:19.280Z,7.83
2019-04-29T17:36:29.005Z,6.00
2019-04-29T17:39:00.240Z,5.57
2019-04-29T17:41:31.573Z,5.83
2019-04-29T17:44:14.592Z,5.90
2019-04-29T17:46:48.818Z,6.30
2019-04-29T17:49:22.215Z,6.30
2019-04-29T17:52:01.496Z,6.50
2019-04-29T17:54:29.800Z,7.17
2019-04-29T17:57:22.838Z,6.80
2019-04-29T17:59:40.570Z,6.27
2019-04-29T18:02:28.180Z,5.67
2019-04-29T18:05:01.216Z,6.30
2019-04-29T18:07:35.171Z,7.10
2019-04-29T18:10:24.200Z,6.63
2019-04-29T18:12:52.005Z,6.80
2019-04-29T18:15:25.761Z,6.50
2019-04-29T18:18:00.352Z,6.20
2019-04-29T18:20:47.463Z,7.60
2019-04-29T18:23:32.223Z,7.80
2019-04-29T18:26:05.452Z,6.80
2019-04-29T18:28:37.445Z,7.00
2019-04-29T18:31:10.900Z,6.97
2019-04-29T18:33:42.080Z,6.90
2019-04-29T18:36:22.006Z,6.57
2019-04-29T18:38:49.905Z,7.10
2019-04-29T18:41:24.474Z,7.47
2019-04-29T18:43:56.401Z,7.67
2019-04-29T18:46:25.928Z,6.67
2019-04-29T18:49:03.146Z,7.13
2019-04-29T18:51:30.508Z,7.00
2019-04-29T18:54:01.758Z,7.10
2019-04-29T18:56:36.366Z,6.97
2019-04-29T18:59:06.214Z,6.80
2019-04-29T19:01:37.445Z,7.10
2019-04-29T19:04:16.254Z,7.13
2019-04-29T19:06:43.843Z,6.93
2019-04-29T19:09:18.563Z,7.50
2019-04-29T19:11:49.221Z,7.67
2019-04-29T19:14:24.296Z,6.70
2019-04-29T19:17:00.089Z,10.10
2019-04-29T19:19:30.725Z,8.00
2019-04-29T19:22:00.812Z,11.30
2019-04-29T19:24:36.450Z,7.17
2019-04-29T19:27:09.937Z,6.90
2019-04-29T19:29:43.230Z,6.97
2019-04-29T19:32:14.567Z,7.27
2019-04-29T19:34:50.103Z,6.83
2019-04-29T19:37:19.080Z,7.47
2019-04-29T19:39:52.485Z,7.33
2019-04-29T19:42:31.054Z,7.03
2019-04-29T19:44:56.855Z,6.57
2019-04-29T19:47:28.186Z,7.37
2019-04-29T19:49:59.508Z,7.03
2019-04-29T19:52:31.831Z,8.93
2019-04-29T19:55:05.416Z,7.00
2019-04-29T19:57:42.195Z,7.47
2019-04-29T20:00:11.995Z,7.33
2019-04-29T20:02:49.521Z,7.53
2019-04-29T20:05:28.259Z,7.40
2019-04-29T20:07:59.067Z,8.83
2019-04-29T20:10:30.922Z,9.67
2019-04-29T20:13:03.075Z,10.10
2019-04-29T20:15:37.766Z,9.60
2019-04-29T20:18:34.531Z,9.87
2019-04-29T20:21:08.597Z,8.83
2019-04-29T20:23:38.529Z,10.20
2019-04-29T20:26:15.461Z,8.83
2019-04-29T20:28:40.923Z,9.23
2019-04-29T20:31:18.667Z,9.47
2019-04-29T20:33:47.012Z,8.97
2019-04-29T20:36:33.300Z,9.30
2019-04-29T20:38:51.816Z,8.87
2019-04-29T20:41:38.102Z,9.53
2019-04-29T20:43:56.416Z,9.20
2019-04-29T20:46:40.116Z,9.30
2019-04-29T20:49:01.058Z,9.27
2019-04-29T20:51:48.667Z,9.30
2019-04-29T20:54:09.053Z,10.97
2019-04-29T20:56:40.748Z,9.63
2019-04-29T20:59:12.915Z,10.17
2019-04-29T21:01:52.190Z,11.13
2019-04-29T21:04:31.956Z,10.47
2019-04-29T21:07:01.848Z,11.77
2019-04-29T21:09:30.364Z,11.27
2019-04-29T21:12:20.638Z,12.57
2019-04-29T21:14:59.304Z,12.43
2019-04-29T21:17:31.911Z,12.23
2019-04-29T21:20:04.709Z,12.17
2019-04-29T21:22:35.828Z,11.70
2019-04-29T21:25:07.276Z,12.10
2019-04-29T21:27:38.404Z,13.47
2019-04-29T21:30:10.269Z,12.50
2019-04-29T21:32:41.434Z,12.03
2019-04-29T21:35:18.423Z,12.73
2019-04-29T21:38:06.085Z,13.20
2019-04-29T21:40:46.104Z,13.43
2019-04-29T21:43:19.262Z,13.50
2019-04-29T21:45:50.706Z,13.53
2019-04-29T21:48:25.645Z,13.33
2019-04-29T21:50:54.971Z,13.13
2019-04-29T21:53:26.000Z,13.03
2019-04-29T21:55:59.596Z,12.63
2019-04-29T21:58:32.997Z,13.73
2019-04-29T22:01:04.964Z,13.70
2019-04-29T22:03:36.494Z,13.17
2019-04-29T22:06:07.786Z,14.03
2019-04-29T22:08:38.932Z,14.33
2019-04-29T22:11:10.310Z,14.40
2019-04-29T22:13:41.520Z,14.57
2019-04-29T22:16:15.922Z,13.63
2019-04-29T22:18:52.065Z,14.10
2019-04-29T22:21:22.095Z,15.43
2019-04-29T22:23:55.135Z,14.73
2019-04-29T22:26:27.156Z,15.53
2019-04-29T22:29:03.136Z,15.37
2019-04-29T22:31:33.691Z,16.67
2019-04-29T22:34:05.516Z,15.63
2019-04-29T22:36:36.872Z,16.37
2019-04-29T22:39:08.591Z,16.13
2019-04-29T22:41:58.743Z,16.93
2019-04-29T22:44:30.063Z,18.63
2019-04-29T22:47:01.421Z,18.77
2019-04-29T22:49:33.630Z,18.40
2019-04-29T22:52:05.009Z,20.00
2019-04-29T22:54:37.870Z,20.30
2019-04-29T22:57:09.184Z,21.90
2019-04-29T22:59:40.331Z,20.50
2019-04-29T23:02:13.350Z,20.30
2019-04-29T23:04:47.219Z,20.70
2019-04-29T23:07:22.266Z,21.73
2019-04-29T23:09:52.059Z,24.90
2019-04-29T23:12:24.977Z,23.67
2019-04-29T23:14:56.512Z,21.43
2019-04-29T23:17:29.365Z,22.30
2019-04-29T23:20:02.431Z,22.07
2019-04-29T23:22:39.742Z,21.30
2019-04-29T23:25:26.663Z,20.53
2019-04-29T23:27:57.694Z,19.90
2019-04-29T23:30:29.012Z,22.87
2019-04-29T23:33:00.208Z,21.07
2019-04-29T23:35:31.541Z,21.73
2019-04-29T23:38:04.380Z,20.23
2019-04-29T23:40:35.805Z,23.27
2019-04-29T23:43:07.193Z,21.93
2019-04-29T23:45:38.426Z,24.47
2019-04-29T23:48:09.825Z,21.73
2019-04-29T23:50:41.583Z,22.73
2019-04-29T23:53:12.901Z,24.30
2019-04-29T23:55:45.653Z,22.30
2019-04-29T23:58:24.740Z,23.60
